createdAt,value
2019-03-20T00:01:43.460Z,78.54
2019-03-20T00:04:06.759Z,79.12
2019-03-20T00:06:38.453Z,79.81
2019-03-20T00:09:11.362Z,79.53
2019-03-20T00:11:42.998Z,78.72
2019-03-20T00:14:14.364Z,79.22
2019-03-20T00:16:45.712Z,79.28
2019-03-20T00:19:17.114Z,79.24
2019-03-20T00:21:50.137Z,78.99
2019-03-20T00:24:21.821Z,79.05
2019-03-20T00:26:53.169Z,79.05
2019-03-20T00:29:24.442Z,80.22
2019-03-20T00:31:56.198Z,80.54
2019-03-20T00:34:27.468Z,80.92
2019-03-20T00:36:59.138Z,80.87
2019-03-20T00:39:30.400Z,80.67
2019-03-20T00:42:01.675Z,80.04
2019-03-20T00:44:32.869Z,80.21
2019-03-20T00:47:04.230Z,79.78
2019-03-20T00:49:35.502Z,79.44
2019-03-20T00:52:06.941Z,79.62
2019-03-20T00:54:38.287Z,79.75
2019-03-20T00:57:09.555Z,80.15
2019-03-20T00:59:40.931Z,78.51
2019-03-20T01:02:12.395Z,78.06
2019-03-20T01:04:43.646Z,78.96
2019-03-20T01:07:15.092Z,79.97
2019-03-20T01:09:46.751Z,80.34
2019-03-20T01:12:18.854Z,80.89
2019-03-20T01:14:50.048Z,81.33
2019-03-20T01:17:22.156Z,82.64
2019-03-20T01:19:53.497Z,83.57
2019-03-20T01:22:24.872Z,83.30
2019-03-20T01:24:57.285Z,82.74
2019-03-20T01:27:28.559Z,82.25
2019-03-20T01:29:59.955Z,82.16
2019-03-20T01:32:31.647Z,82.22
2019-03-20T01:35:03.015Z,81.73
2019-03-20T01:37:34.381Z,80.46
2019-03-20T01:40:06.121Z,81.99
2019-03-20T01:42:37.479Z,82.55
2019-03-20T01:45:09.833Z,82.66
2019-03-20T01:47:41.132Z,82.45
2019-03-20T01:50:13.912Z,81.98
2019-03-20T01:52:45.310Z,82.44
2019-03-20T01:55:16.872Z,81.95
2019-03-20T01:57:48.309Z,81.57
2019-03-20T02:00:19.732Z,81.08
2019-03-20T02:02:51.039Z,81.44
2019-03-20T02:05:22.380Z,81.38
2019-03-20T02:07:53.869Z,81.27
2019-03-20T02:10:25.851Z,80.83
2019-03-20T02:12:58.670Z,80.78
2019-03-20T02:15:38.629Z,80.94
2019-03-20T02:18:03.775Z,81.33
2019-03-20T02:20:34.961Z,81.35
2019-03-20T02:23:06.424Z,80.64
2019-03-20T02:25:38.224Z,81.20
2019-03-20T02:28:09.802Z,80.46
2019-03-20T02:30:41.354Z,80.59
2019-03-20T02:33:12.588Z,81.01
2019-03-20T02:35:51.325Z,81.41
2019-03-20T02:38:16.754Z,82.08
2019-03-20T02:40:48.038Z,82.51
2019-03-20T02:43:19.296Z,83.97
2019-03-20T02:45:51.721Z,83.88
2019-03-20T02:48:23.237Z,82.06
2019-03-20T02:50:54.729Z,82.55
2019-03-20T02:53:26.029Z,83.16
2019-03-20T02:55:57.385Z,83.45
2019-03-20T02:58:28.701Z,83.68
2019-03-20T03:01:00.050Z,83.09
2019-03-20T03:03:31.336Z,83.13
2019-03-20T03:06:07.297Z,83.09
2019-03-20T03:08:36.286Z,82.01
2019-03-20T03:11:07.624Z,81.58
2019-03-20T03:13:39.148Z,81.91
2019-03-20T03:16:10.480Z,82.43
2019-03-20T03:18:42.068Z,83.11
2019-03-20T03:21:13.763Z,83.63
2019-03-20T03:23:45.071Z,84.48
2019-03-20T03:26:16.341Z,84.78
2019-03-20T03:28:47.956Z,84.72
2019-03-20T03:31:19.165Z,85.01
2019-03-20T03:33:51.101Z,85.53
2019-03-20T03:36:22.423Z,85.09
2019-03-20T03:38:53.819Z,84.82
2019-03-20T03:41:25.084Z,84.12
2019-03-20T03:43:56.448Z,84.04
2019-03-20T03:46:28.024Z,83.81
2019-03-20T03:48:59.311Z,84.47
2019-03-20T03:51:30.572Z,85.19
2019-03-20T03:54:01.962Z,86.10
2019-03-20T03:56:33.137Z,86.57
2019-03-20T03:59:04.563Z,86.31
2019-03-20T04:01:35.898Z,85.74
2019-03-20T04:04:07.596Z,85.27
2019-03-20T04:06:38.873Z,85.31
2019-03-20T04:09:10.289Z,84.73
2019-03-20T04:11:41.998Z,84.04
2019-03-20T04:14:13.278Z,83.70
2019-03-20T04:16:44.600Z,83.83
2019-03-20T04:19:15.965Z,84.54
2019-03-20T04:21:47.158Z,85.49
2019-03-20T04:24:18.789Z,86.09
2019-03-20T04:26:50.009Z,86.21
2019-03-20T04:29:21.616Z,86.08
2019-03-20T04:31:54.292Z,85.28
2019-03-20T04:34:25.647Z,84.55
2019-03-20T04:36:57.244Z,84.23
2019-03-20T04:39:28.593Z,84.52
2019-03-20T04:41:59.779Z,84.13
2019-03-20T04:44:31.142Z,83.99
2019-03-20T04:47:02.783Z,84.11
2019-03-20T04:49:33.973Z,84.26
2019-03-20T04:52:05.942Z,83.84
2019-03-20T04:54:37.410Z,83.87
2019-03-20T04:57:08.890Z,83.49
2019-03-20T04:59:40.102Z,83.11
2019-03-20T05:02:11.515Z,83.63
2019-03-20T05:04:43.213Z,83.93
2019-03-20T05:07:14.602Z,84.81
2019-03-20T05:09:46.151Z,85.93
2019-03-20T05:12:17.676Z,86.58
2019-03-20T05:14:49.184Z,85.83
2019-03-20T05:17:20.534Z,86.36
2019-03-20T05:19:52.003Z,86.82
2019-03-20T05:22:23.216Z,86.23
2019-03-20T05:24:54.508Z,86.12
2019-03-20T05:27:25.773Z,86.44
2019-03-20T05:29:57.590Z,84.65
2019-03-20T05:32:28.945Z,84.40
2019-03-20T05:35:00.723Z,84.20
2019-03-20T05:37:31.912Z,84.61
2019-03-20T05:40:03.385Z,84.03
2019-03-20T05:42:34.896Z,84.94
2019-03-20T05:45:07.606Z,85.01
2019-03-20T05:47:39.167Z,84.86
2019-03-20T05:50:11.967Z,85.47
2019-03-20T05:52:43.384Z,85.89
2019-03-20T05:55:14.847Z,86.30
2019-03-20T05:57:46.120Z,86.40
2019-03-20T06:00:17.848Z,86.47
2019-03-20T06:02:49.185Z,85.91
2019-03-20T06:05:20.872Z,85.58
2019-03-20T06:07:52.657Z,84.30
2019-03-20T06:10:23.951Z,82.42
2019-03-20T06:12:55.155Z,81.13
2019-03-20T06:15:27.751Z,80.03
2019-03-20T06:17:58.951Z,77.40
2019-03-20T06:20:30.230Z,75.76
2019-03-20T06:23:01.845Z,75.15
2019-03-20T06:25:33.148Z,74.61
2019-03-20T06:28:04.462Z,72.44
2019-03-20T06:30:35.893Z,70.76
2019-03-20T06:33:07.296Z,71.09
2019-03-20T06:35:38.569Z,70.16
2019-03-20T06:38:09.838Z,70.46
2019-03-20T06:40:41.183Z,68.77
2019-03-20T06:43:12.692Z,66.92
2019-03-20T06:45:43.973Z,65.78
2019-03-20T06:48:15.166Z,69.33
2019-03-20T06:50:46.789Z,68.07
2019-03-20T06:53:19.662Z,64.17
2019-03-20T06:55:51.002Z,66.37
2019-03-20T06:58:22.334Z,62.87
2019-03-20T07:01:22.582Z,62.38
2019-03-20T07:04:28.180Z,61.13
2019-03-20T07:07:19.181Z,62.96
2019-03-20T07:10:30.279Z,59.40
2019-03-20T07:13:01.469Z,58.69
2019-03-20T07:15:32.728Z,59.87
2019-03-20T07:18:04.004Z,59.69
2019-03-20T07:20:35.347Z,56.96
2019-03-20T07:23:06.618Z,55.49
2019-03-20T07:25:38.283Z,56.42
2019-03-20T07:28:10.321Z,56.62
2019-03-20T07:30:42.187Z,56.46
2019-03-20T07:33:13.524Z,55.10
2019-03-20T07:35:44.725Z,54.20
2019-03-20T07:38:16.092Z,51.33
2019-03-20T07:40:47.453Z,50.12
2019-03-20T07:43:18.712Z,52.06
2019-03-20T07:45:50.891Z,49.27
2019-03-20T07:48:22.712Z,52.05
2019-03-20T07:50:54.093Z,48.24
2019-03-20T07:53:25.609Z,48.20
2019-03-20T07:55:56.836Z,49.17
2019-03-20T07:58:28.656Z,47.74
2019-03-20T08:01:00.352Z,49.37
2019-03-20T08:03:31.843Z,48.77
2019-03-20T08:06:03.281Z,48.21
2019-03-20T08:08:34.454Z,47.07
2019-03-20T08:11:05.973Z,52.83
2019-03-20T08:13:37.267Z,49.85
2019-03-20T08:16:08.867Z,49.40
2019-03-20T08:18:40.443Z,47.89
2019-03-20T08:21:11.876Z,48.38
2019-03-20T08:23:43.772Z,46.39
2019-03-20T08:26:15.188Z,47.04
2019-03-20T08:28:46.795Z,46.30
2019-03-20T08:31:18.154Z,43.65
2019-03-20T08:33:49.358Z,41.66
2019-03-20T08:36:20.716Z,42.40
2019-03-20T08:38:51.990Z,40.68
2019-03-20T08:41:23.921Z,41.86
2019-03-20T08:43:55.442Z,40.59
2019-03-20T08:46:26.622Z,40.73
2019-03-20T08:48:58.041Z,41.10
2019-03-20T08:51:29.398Z,41.63
2019-03-20T08:54:00.747Z,40.94
2019-03-20T08:56:33.064Z,42.65
2019-03-20T08:59:04.728Z,38.34
2019-03-20T09:01:36.119Z,40.33
2019-03-20T09:04:07.387Z,40.12
2019-03-20T09:06:38.587Z,39.94
2019-03-20T09:09:10.297Z,37.18
2019-03-20T09:11:41.655Z,38.69
2019-03-20T09:14:13.375Z,37.07
2019-03-20T09:16:45.099Z,35.54
2019-03-20T09:19:16.391Z,38.20
2019-03-20T09:21:48.269Z,35.88
2019-03-20T09:24:20.395Z,40.03
2019-03-20T09:26:52.067Z,36.76
2019-03-20T09:29:23.735Z,32.32
2019-03-20T09:31:55.066Z,31.16
2019-03-20T09:34:26.367Z,31.71
2019-03-20T09:36:57.717Z,32.72
2019-03-20T09:39:28.997Z,32.71
2019-03-20T09:42:00.392Z,31.17
2019-03-20T09:44:31.683Z,31.72
2019-03-20T09:47:02.906Z,30.08
2019-03-20T09:49:34.393Z,30.36
2019-03-20T09:52:05.824Z,30.97
2019-03-20T09:54:37.167Z,29.75
2019-03-20T09:57:08.779Z,29.73
2019-03-20T09:59:40.080Z,33.00
2019-03-20T10:02:11.529Z,30.04
2019-03-20T10:04:42.950Z,29.39
2019-03-20T10:07:14.586Z,26.78
2019-03-20T10:09:45.886Z,27.93
2019-03-20T10:12:17.538Z,28.20
2019-03-20T10:14:48.835Z,26.98
2019-03-20T10:17:21.202Z,27.55
2019-03-20T10:19:52.559Z,25.11
2019-03-20T10:22:24.114Z,26.99
2019-03-20T10:24:55.701Z,26.31
2019-03-20T10:27:27.262Z,27.12
2019-03-20T10:29:58.875Z,29.62
2019-03-20T10:32:30.260Z,27.13
2019-03-20T10:35:02.744Z,27.02
2019-03-20T10:37:34.131Z,28.40
2019-03-20T10:40:07.803Z,26.91
2019-03-20T10:42:39.569Z,27.08
2019-03-20T10:45:12.412Z,27.12
2019-03-20T10:47:44.556Z,29.79
2019-03-20T10:50:21.180Z,30.60
2019-03-20T10:52:52.795Z,28.81
2019-03-20T10:55:24.557Z,27.97
2019-03-20T10:57:56.248Z,27.36
2019-03-20T11:00:27.714Z,28.98
2019-03-20T11:02:59.277Z,26.46
2019-03-20T11:05:30.856Z,27.13
2019-03-20T11:08:02.396Z,25.85
2019-03-20T11:10:34.427Z,26.54
2019-03-20T11:13:06.000Z,26.52
2019-03-20T11:15:37.462Z,25.72
2019-03-20T11:18:09.435Z,27.40
2019-03-20T11:20:40.819Z,28.87
2019-03-20T11:23:12.246Z,31.61
2019-03-20T11:25:44.043Z,29.10
2019-03-20T11:28:15.597Z,27.01
2019-03-20T11:30:47.305Z,28.02
2019-03-20T11:33:19.049Z,29.17
2019-03-20T11:35:50.370Z,25.04
2019-03-20T11:38:21.819Z,27.35
2019-03-20T11:40:53.198Z,27.53
2019-03-20T11:43:24.593Z,26.04
2019-03-20T11:45:56.174Z,27.50
2019-03-20T11:48:27.670Z,26.89
2019-03-20T11:50:59.473Z,28.15
2019-03-20T11:53:30.854Z,25.55
2019-03-20T11:56:02.184Z,25.72
2019-03-20T11:58:33.549Z,25.10
2019-03-20T12:01:05.288Z,24.76
2019-03-20T12:03:36.599Z,25.35
2019-03-20T12:06:08.006Z,25.79
2019-03-20T12:08:39.343Z,26.68
2019-03-20T12:11:10.909Z,27.24
2019-03-20T12:13:42.627Z,26.26
2019-03-20T12:16:13.974Z,25.74
2019-03-20T12:18:45.707Z,26.18
2019-03-20T12:21:17.328Z,27.08
2019-03-20T12:23:48.701Z,25.10
2019-03-20T12:26:20.086Z,27.45
2019-03-20T12:28:51.314Z,26.72
2019-03-20T12:31:22.720Z,26.67
2019-03-20T12:33:54.052Z,24.77
2019-03-20T12:36:25.459Z,26.06
2019-03-20T12:38:56.777Z,25.75
2019-03-20T12:41:28.272Z,26.32
2019-03-20T12:43:59.568Z,25.93
2019-03-20T12:46:41.393Z,26.51
2019-03-20T12:49:04.304Z,25.73
2019-03-20T12:51:36.067Z,24.88
2019-03-20T12:54:07.451Z,26.52
2019-03-20T12:56:40.317Z,26.34
2019-03-20T12:59:11.594Z,26.66
2019-03-20T13:01:42.985Z,25.88
2019-03-20T13:04:14.395Z,24.65
2019-03-20T13:06:45.696Z,26.24
2019-03-20T13:09:16.949Z,26.75
2019-03-20T13:11:48.411Z,26.41
2019-03-20T13:14:19.813Z,26.46
2019-03-20T13:16:51.053Z,26.54
2019-03-20T13:19:22.356Z,26.45
2019-03-20T13:21:53.746Z,24.64
2019-03-20T13:24:25.181Z,24.83
2019-03-20T13:26:56.523Z,26.05
2019-03-20T13:29:28.195Z,26.27
2019-03-20T13:31:59.438Z,26.22
2019-03-20T13:34:31.124Z,25.05
2019-03-20T13:37:02.432Z,26.82
2019-03-20T13:39:33.725Z,26.04
2019-03-20T13:42:05.151Z,25.74
2019-03-20T13:44:36.591Z,25.92
2019-03-20T13:47:08.788Z,25.47
2019-03-20T13:49:40.121Z,26.73
2019-03-20T13:52:11.590Z,25.46
2019-03-20T13:54:43.327Z,27.09
2019-03-20T13:57:14.683Z,26.80
2019-03-20T13:59:46.485Z,24.88
2019-03-20T14:02:18.068Z,25.48
2019-03-20T14:04:49.618Z,26.45
2019-03-20T14:07:20.968Z,27.38
2019-03-20T14:09:52.387Z,26.33
2019-03-20T14:12:24.307Z,26.16
2019-03-20T14:14:55.688Z,26.52
2019-03-20T14:17:27.363Z,25.33
2019-03-20T14:19:58.944Z,26.59
2019-03-20T14:22:30.373Z,28.26
2019-03-20T14:25:01.775Z,28.96
2019-03-20T14:27:33.184Z,28.25
2019-03-20T14:30:05.689Z,26.66
2019-03-20T14:32:37.145Z,29.79
2019-03-20T14:35:09.409Z,27.95
2019-03-20T14:37:40.806Z,29.22
2019-03-20T14:40:13.183Z,28.38
2019-03-20T14:42:44.664Z,29.48
2019-03-20T14:45:16.744Z,27.82
2019-03-20T14:47:48.137Z,28.75
2019-03-20T14:50:23.319Z,28.53
2019-03-20T14:52:55.309Z,27.32
2019-03-20T14:55:26.824Z,26.77
2019-03-20T14:57:58.659Z,29.03
2019-03-20T15:00:30.121Z,29.46
2019-03-20T15:03:01.889Z,27.96
2019-03-20T15:05:33.544Z,27.70
2019-03-20T15:08:05.063Z,27.19
2019-03-20T15:10:45.650Z,27.59
2019-03-20T15:13:09.738Z,29.87
2019-03-20T15:15:53.576Z,30.70
2019-03-20T15:18:24.953Z,29.42
2019-03-20T15:20:56.357Z,28.96
2019-03-20T15:23:27.829Z,29.89
2019-03-20T15:25:59.166Z,27.61
2019-03-20T15:28:30.603Z,28.05
2019-03-20T15:31:02.003Z,27.79
2019-03-20T15:33:33.422Z,27.37
2019-03-20T15:36:04.795Z,27.38
2019-03-20T15:38:36.687Z,28.62
2019-03-20T15:41:08.011Z,28.69
2019-03-20T15:43:39.339Z,30.87
2019-03-20T15:46:10.694Z,28.72
2019-03-20T15:48:41.937Z,30.69
2019-03-20T15:51:13.309Z,30.29
2019-03-20T15:53:44.759Z,30.76
2019-03-20T15:56:16.157Z,31.32
2019-03-20T15:58:47.670Z,29.47
2019-03-20T16:01:19.510Z,30.29
2019-03-20T16:03:51.141Z,30.29
2019-03-20T16:06:23.086Z,29.83
2019-03-20T16:08:56.862Z,29.28
2019-03-20T16:11:27.609Z,30.15
2019-03-20T16:13:58.961Z,29.38
2019-03-20T16:16:30.679Z,30.79
2019-03-20T16:19:02.341Z,30.28
2019-03-20T16:21:33.654Z,31.82
2019-03-20T16:24:05.418Z,32.85
2019-03-20T16:26:36.654Z,31.53
2019-03-20T16:29:08.233Z,31.86
2019-03-20T16:31:39.568Z,31.29
2019-03-20T16:34:10.939Z,31.93
2019-03-20T16:36:42.188Z,36.64
2019-03-20T16:39:13.590Z,34.98
2019-03-20T16:41:45.286Z,34.72
2019-03-20T16:44:17.883Z,34.16
2019-03-20T16:46:49.194Z,36.00
2019-03-20T16:49:20.541Z,36.47
2019-03-20T16:51:51.855Z,38.07
2019-03-20T16:54:23.148Z,39.95
2019-03-20T16:56:54.557Z,39.42
2019-03-20T16:59:26.010Z,39.92
2019-03-20T17:02:00.224Z,39.08
2019-03-20T17:04:31.603Z,40.35
2019-03-20T17:07:02.992Z,41.04
2019-03-20T17:09:34.639Z,41.87
2019-03-20T17:12:06.375Z,43.06
2019-03-20T17:14:38.100Z,45.58
2019-03-20T17:17:09.533Z,45.33
2019-03-20T17:19:41.182Z,48.74
2019-03-20T17:22:12.496Z,48.78
2019-03-20T17:24:43.816Z,50.44
2019-03-20T17:27:15.114Z,52.69
2019-03-20T17:29:46.430Z,52.35
2019-03-20T17:32:18.072Z,53.07
2019-03-20T17:34:49.416Z,53.85
2019-03-20T17:37:20.883Z,54.30
2019-03-20T17:39:52.200Z,54.13
2019-03-20T17:42:24.681Z,54.48
2019-03-20T17:44:56.080Z,54.79
2019-03-20T17:47:27.674Z,56.83
2019-03-20T17:49:59.102Z,56.61
2019-03-20T17:52:30.524Z,57.92
2019-03-20T17:55:02.256Z,56.97
2019-03-20T17:57:33.580Z,57.66
2019-03-20T18:00:09.121Z,56.83
2019-03-20T18:02:40.559Z,54.81
2019-03-20T18:05:12.287Z,54.97
2019-03-20T18:07:43.776Z,55.47
2019-03-20T18:10:15.366Z,57.50
2019-03-20T18:12:46.847Z,57.88
2019-03-20T18:15:18.489Z,59.02
2019-03-20T18:17:49.893Z,59.51
2019-03-20T18:20:21.290Z,59.53
2019-03-20T18:22:52.714Z,58.98
2019-03-20T18:25:24.871Z,60.42
2019-03-20T18:27:56.340Z,61.90
2019-03-20T18:30:27.760Z,62.88
2019-03-20T18:33:00.623Z,62.87
2019-03-20T18:35:31.986Z,64.02
2019-03-20T18:38:03.435Z,64.33
2019-03-20T18:40:34.913Z,64.52
2019-03-20T18:43:06.456Z,64.73
2019-03-20T18:45:37.940Z,64.44
2019-03-20T18:48:09.351Z,65.14
2019-03-20T18:50:40.817Z,64.67
2019-03-20T18:53:12.564Z,64.92
2019-03-20T18:55:44.272Z,66.64
2019-03-20T18:58:15.719Z,68.12
2019-03-20T19:00:47.128Z,68.06
2019-03-20T19:03:18.610Z,66.93
2019-03-20T19:06:00.606Z,65.05
2019-03-20T19:08:31.973Z,64.87
2019-03-20T19:11:03.572Z,64.46
2019-03-20T19:13:35.001Z,63.85
2019-03-20T19:16:06.796Z,63.92
2019-03-20T19:18:38.146Z,64.70
2019-03-20T19:21:09.738Z,63.81
2019-03-20T19:23:41.061Z,64.69
2019-03-20T19:26:12.605Z,66.80
2019-03-20T19:28:44.006Z,68.35
2019-03-20T19:31:15.268Z,69.56
2019-03-20T19:33:46.609Z,69.85
2019-03-20T19:36:17.964Z,70.91
2019-03-20T19:38:49.255Z,71.43
2019-03-20T19:41:20.670Z,71.94
2019-03-20T19:43:51.984Z,72.75
2019-03-20T19:46:23.556Z,73.25
2019-03-20T19:48:55.560Z,73.38
2019-03-20T19:51:27.528Z,73.96
2019-03-20T19:53:58.808Z,73.92
2019-03-20T19:56:30.603Z,73.52
2019-03-20T19:59:01.961Z,72.06
2019-03-20T20:01:33.548Z,69.85
2019-03-20T20:04:05.203Z,69.05
2019-03-20T20:06:36.728Z,69.82
2019-03-20T20:09:09.165Z,68.54
2019-03-20T20:11:40.547Z,68.33
2019-03-20T20:14:12.045Z,67.92
2019-03-20T20:16:43.404Z,68.63
2019-03-20T20:19:15.084Z,69.93
2019-03-20T20:21:46.279Z,69.20
2019-03-20T20:24:17.635Z,68.82
2019-03-20T20:26:49.370Z,68.63
2019-03-20T20:29:20.588Z,67.21
2019-03-20T20:31:51.927Z,66.57
2019-03-20T20:34:23.256Z,65.64
2019-03-20T20:36:54.524Z,67.09
2019-03-20T20:39:25.735Z,69.06
2019-03-20T20:41:57.038Z,68.66
2019-03-20T20:44:28.697Z,67.91
2019-03-20T20:46:59.896Z,68.98
2019-03-20T20:49:32.259Z,68.84
2019-03-20T20:52:03.880Z,69.20
2019-03-20T20:54:35.171Z,67.80
2019-03-20T20:57:06.608Z,67.57
2019-03-20T20:59:38.023Z,68.77
2019-03-20T21:02:09.205Z,68.80
2019-03-20T21:04:40.672Z,69.11
2019-03-20T21:07:12.092Z,69.53
2019-03-20T21:09:43.581Z,67.43
2019-03-20T21:12:14.830Z,66.88
2019-03-20T21:14:46.240Z,67.04
2019-03-20T21:17:31.591Z,69.31
2019-03-20T21:20:03.649Z,70.09
2019-03-20T21:23:48.993Z,69.47
2019-03-20T21:26:21.848Z,69.14
2019-03-20T21:29:37.602Z,69.35
2019-03-20T21:32:38.690Z,68.23
2019-03-20T21:36:24.065Z,66.62
2019-03-20T21:38:56.037Z,66.56
2019-03-20T21:42:39.229Z,67.00
2019-03-20T21:45:58.227Z,67.52
2019-03-20T21:48:30.295Z,69.27
2019-03-20T21:51:20.351Z,70.22
2019-03-20T21:54:49.092Z,69.28
2019-03-20T21:57:56.044Z,67.87
2019-03-20T22:01:32.516Z,69.47
2019-03-20T22:04:04.781Z,69.60
2019-03-20T22:07:23.755Z,70.53
2019-03-20T22:11:00.593Z,70.52
2019-03-20T22:13:45.170Z,69.80
2019-03-20T22:17:24.372Z,69.08
2019-03-20T22:21:18.414Z,68.80
2019-03-20T22:24:23.626Z,71.76
2019-03-20T22:27:44.274Z,72.56
2019-03-20T22:30:16.888Z,72.39
2019-03-20T22:33:42.831Z,71.66
2019-03-20T22:36:37.964Z,71.25
2019-03-20T22:39:55.849Z,71.56
2019-03-20T22:42:50.416Z,72.11
2019-03-20T22:46:27.976Z,73.46
2019-03-20T22:49:48.904Z,74.55
2019-03-20T22:52:58.347Z,73.73
2019-03-20T22:56:00.719Z,72.95
2019-03-20T22:58:48.758Z,72.61
2019-03-20T23:01:51.251Z,73.43
2019-03-20T23:04:32.820Z,74.92
2019-03-20T23:07:05.303Z,76.70
2019-03-20T23:09:37.796Z,76.38
2019-03-20T23:12:14.206Z,74.91
2019-03-20T23:14:46.915Z,75.04
2019-03-20T23:17:19.387Z,74.19
2019-03-20T23:19:53.405Z,74.12
2019-03-20T23:22:25.534Z,74.32
2019-03-20T23:24:58.620Z,75.71
2019-03-20T23:27:32.809Z,76.86
2019-03-20T23:30:08.995Z,76.86
2019-03-20T23:32:41.443Z,75.88
2019-03-20T23:35:13.899Z,74.87
2019-03-20T23:37:46.032Z,74.60
2019-03-20T23:40:18.167Z,74.41
2019-03-20T23:42:50.370Z,74.14
2019-03-20T23:45:22.817Z,74.63
2019-03-20T23:48:19.742Z,74.14
2019-03-20T23:50:55.646Z,74.86
2019-03-20T23:53:28.452Z,75.93
2019-03-20T23:56:00.659Z,74.89
2019-03-20T23:58:32.902Z,74.78
